createdAt,value
2023-05-11T00:01:18.858Z,9.70
2023-05-11T00:03:48.118Z,9.58
2023-05-11T00:06:16.894Z,9.59
2023-05-11T00:08:47.210Z,9.53
2023-05-11T00:11:16.830Z,9.49
2023-05-11T00:13:45.887Z,9.49
2023-05-11T00:16:15.154Z,9.54
2023-05-11T00:18:43.952Z,9.63
2023-05-11T00:21:12.686Z,9.59
2023-05-11T00:23:42.881Z,9.53
2023-05-11T00:26:12.245Z,9.41
2023-05-11T00:28:40.830Z,9.32
2023-05-11T00:31:09.542Z,9.35
2023-05-11T00:33:38.363Z,9.18
2023-05-11T00:36:08.247Z,9.24
2023-05-11T00:38:43.450Z,9.18
2023-05-11T00:41:12.102Z,9.18
2023-05-11T00:43:40.723Z,9.14
2023-05-11T00:46:09.473Z,9.08
2023-05-11T00:48:38.219Z,9.04
2023-05-11T00:51:07.649Z,9.05
2023-05-11T00:53:38.294Z,9.13
2023-05-11T00:56:07.112Z,9.09
2023-05-11T00:58:37.006Z,9.11
2023-05-11T01:01:05.880Z,8.98
2023-05-11T01:03:36.434Z,9.06
2023-05-11T01:06:28.934Z,9.07
2023-05-11T01:09:09.685Z,9.03
2023-05-11T01:12:06.986Z,9.03
2023-05-11T01:14:50.978Z,8.98
2023-05-11T01:17:29.241Z,8.95
2023-05-11T01:20:00.937Z,8.97
2023-05-11T01:23:00.751Z,8.99
2023-05-11T01:25:43.781Z,9.03
2023-05-11T01:28:21.025Z,8.98
2023-05-11T01:30:55.453Z,8.98
2023-05-11T01:33:45.079Z,8.97
2023-05-11T01:36:36.516Z,8.92
2023-05-11T01:39:11.250Z,8.95
2023-05-11T01:41:46.416Z,9.01
2023-05-11T01:49:46.467Z,9.03
2023-05-11T01:52:33.495Z,9.01
2023-05-11T01:57:51.451Z,8.98
2023-05-11T02:03:38.217Z,8.94
2023-05-11T02:06:10.921Z,8.92
2023-05-11T02:09:15.381Z,8.85
2023-05-11T02:11:55.071Z,8.88
2023-05-11T02:14:28.259Z,8.83
2023-05-11T02:17:00.066Z,8.89
2023-05-11T02:19:37.654Z,8.83
2023-05-11T02:22:08.067Z,8.79
2023-05-11T02:24:42.262Z,8.84
2023-05-11T02:27:13.083Z,8.76
2023-05-11T02:29:52.325Z,8.68
2023-05-11T02:32:23.760Z,8.62
2023-05-11T02:35:31.844Z,8.65
2023-05-11T02:38:05.182Z,8.66
2023-05-11T02:40:37.437Z,8.67
2023-05-11T02:43:12.633Z,8.60
2023-05-11T02:45:55.047Z,8.55
2023-05-11T02:48:46.936Z,8.53
2023-05-11T02:51:22.722Z,8.46
2023-05-11T02:53:58.406Z,8.49
2023-05-11T02:56:28.229Z,8.35
2023-05-11T02:59:10.927Z,8.39
2023-05-11T03:01:48.273Z,8.46
2023-05-11T03:04:17.460Z,8.38
2023-05-11T03:06:46.371Z,8.44
2023-05-11T03:09:15.718Z,8.41
2023-05-11T03:11:45.555Z,8.45
2023-05-11T03:14:14.464Z,8.38
2023-05-11T03:16:43.486Z,8.38
2023-05-11T03:19:13.482Z,8.31
2023-05-11T03:21:42.988Z,8.30
2023-05-11T03:24:14.809Z,8.31
2023-05-11T03:26:46.299Z,8.30
2023-05-11T03:29:16.419Z,8.33
2023-05-11T03:31:47.773Z,8.34
2023-05-11T03:34:17.066Z,8.40
2023-05-11T03:36:48.853Z,8.39
2023-05-11T03:39:24.522Z,8.40
2023-05-11T03:41:54.698Z,8.39
2023-05-11T03:44:24.946Z,8.41
2023-05-11T03:47:23.879Z,8.55
2023-05-11T03:49:54.696Z,8.45
2023-05-11T03:52:24.108Z,8.48
2023-05-11T03:55:01.651Z,8.46
2023-05-11T03:57:32.098Z,8.37
2023-05-11T04:00:00.846Z,8.42
2023-05-11T04:02:33.237Z,8.50
2023-05-11T04:05:00.137Z,8.54
2023-05-11T04:07:30.432Z,8.50
2023-05-11T04:09:59.225Z,8.40
2023-05-11T04:15:30.529Z,8.45
2023-05-11T04:17:59.268Z,8.50
2023-05-11T04:20:30.054Z,8.52
2023-05-11T04:22:58.836Z,8.65
2023-05-11T04:25:27.862Z,8.50
2023-05-11T04:27:56.758Z,8.44
2023-05-11T04:30:25.813Z,8.47
2023-05-11T04:32:54.867Z,8.56
2023-05-11T04:35:25.125Z,8.52
2023-05-11T04:37:53.778Z,8.55
2023-05-11T04:40:22.483Z,8.54
2023-05-11T04:42:51.144Z,8.50
2023-05-11T04:45:20.640Z,8.54
2023-05-11T04:47:49.432Z,8.60
2023-05-11T04:50:18.378Z,8.56
2023-05-11T04:52:47.497Z,8.56
2023-05-11T04:55:16.269Z,8.41
2023-05-11T04:57:44.992Z,8.46
2023-05-11T05:00:14.059Z,8.55
2023-05-11T05:02:42.656Z,8.62
2023-05-11T05:05:11.778Z,8.57
2023-05-11T05:07:51.533Z,8.67
2023-05-11T05:10:48.235Z,8.65
2023-05-11T05:13:19.705Z,8.57
2023-05-11T05:16:05.660Z,8.68
2023-05-11T05:18:57.032Z,8.68
2023-05-11T05:21:26.425Z,8.68
2023-05-11T05:24:04.001Z,8.71
2023-05-11T05:26:50.493Z,8.87
2023-05-11T05:29:24.324Z,8.96
2023-05-11T05:31:53.113Z,9.02
2023-05-11T05:34:21.842Z,9.03
2023-05-11T05:36:50.521Z,9.14
2023-05-11T05:39:19.237Z,9.19
2023-05-11T05:41:48.245Z,9.30
2023-05-11T05:44:16.890Z,9.20
2023-05-11T05:46:45.771Z,9.03
2023-05-11T05:49:14.818Z,9.04
2023-05-11T05:51:43.459Z,9.04
2023-05-11T05:54:13.405Z,9.21
2023-05-11T05:56:42.267Z,9.07
2023-05-11T05:59:12.626Z,9.17
2023-05-11T06:01:45.882Z,9.11
2023-05-11T06:04:15.970Z,8.57
2023-05-11T06:06:44.886Z,9.00
2023-05-11T06:09:39.021Z,9.10
2023-05-11T06:12:20.942Z,9.30
2023-05-11T06:14:49.800Z,9.20
2023-05-11T06:17:21.773Z,9.15
2023-05-11T06:19:51.318Z,9.09
2023-05-11T06:22:20.054Z,9.12
2023-05-11T06:24:48.776Z,9.10
2023-05-11T06:27:20.784Z,9.10
2023-05-11T06:32:23.173Z,9.48
2023-05-11T06:34:56.088Z,9.45
2023-05-11T06:40:26.849Z,9.43
2023-05-11T06:42:55.450Z,9.40
2023-05-11T06:45:24.342Z,9.46
2023-05-11T06:47:59.182Z,9.53
2023-05-11T06:53:16.370Z,9.69
2023-05-11T06:55:46.965Z,9.53
2023-05-11T06:58:17.153Z,9.68
2023-05-11T07:00:48.564Z,9.78
2023-05-11T07:03:20.565Z,9.81
2023-05-11T07:05:49.529Z,9.97
2023-05-11T07:08:18.170Z,10.24
2023-05-11T07:10:46.940Z,10.18
2023-05-11T07:13:20.109Z,10.41
2023-05-11T07:15:46.388Z,10.29
2023-05-11T07:18:16.067Z,10.39
2023-05-11T07:20:47.689Z,11.13
2023-05-11T07:23:23.950Z,11.30
2023-05-11T07:25:59.297Z,11.41
2023-05-11T07:28:28.433Z,11.52
2023-05-11T07:30:57.678Z,11.97
2023-05-11T07:33:27.648Z,11.85
2023-05-11T07:35:56.470Z,11.89
2023-05-11T07:38:25.151Z,11.96
2023-05-11T07:40:54.003Z,12.18
2023-05-11T07:43:22.824Z,12.38
2023-05-11T07:45:51.708Z,12.82
2023-05-11T07:48:20.952Z,13.55
2023-05-11T07:50:52.390Z,13.35
2023-05-11T08:00:46.058Z,14.03
2023-05-11T08:02:50.779Z,13.95
2023-05-11T08:05:21.888Z,13.99
2023-05-11T08:10:51.628Z,14.72
2023-05-11T08:13:23.758Z,14.77
2023-05-11T08:16:07.216Z,14.81
2023-05-11T08:18:36.485Z,14.58
2023-05-11T08:21:05.821Z,14.81
2023-05-11T08:23:45.339Z,14.32
2023-05-11T08:26:36.596Z,14.52
2023-05-11T08:29:23.680Z,14.43
2023-05-11T08:32:02.704Z,14.95
2023-05-11T08:34:36.277Z,14.99
2023-05-11T08:37:05.849Z,14.73
2023-05-11T08:39:46.611Z,15.55
2023-05-11T08:42:14.042Z,15.21
2023-05-11T08:45:01.293Z,15.40
2023-05-11T08:51:30.372Z,15.26
2023-05-11T09:13:09.223Z,14.94
2023-05-11T09:15:43.330Z,15.26
2023-05-11T09:18:15.500Z,14.84
2023-05-11T09:23:39.876Z,14.99
2023-05-11T09:26:47.578Z,14.76
2023-05-11T09:29:21.080Z,14.77
2023-05-11T09:32:31.213Z,14.62
2023-05-11T09:34:49.692Z,14.42
2023-05-11T09:37:42.425Z,14.84
2023-05-11T09:40:27.311Z,14.72
2023-05-11T09:45:42.530Z,14.50
2023-05-11T09:48:35.500Z,14.60
2023-05-11T09:51:11.816Z,14.16
2023-05-11T09:53:58.498Z,14.40
2023-05-11T09:56:54.439Z,14.19
2023-05-11T09:59:59.421Z,14.58
2023-05-11T10:03:04.585Z,14.15
2023-05-11T10:05:34.990Z,14.66
2023-05-11T10:08:45.814Z,14.87
2023-05-11T10:11:37.263Z,14.86
2023-05-11T10:17:18.673Z,15.43
2023-05-11T10:20:05.095Z,15.49
2023-05-11T10:22:51.647Z,15.32
2023-05-11T10:26:00.591Z,15.01
2023-05-11T10:28:37.040Z,15.32
2023-05-11T10:31:22.137Z,15.53
2023-05-11T10:34:05.247Z,16.10
2023-05-11T10:36:49.870Z,16.25
2023-05-11T10:42:50.500Z,15.74
2023-05-11T10:46:06.684Z,15.37
2023-05-11T10:48:44.621Z,16.04
2023-05-11T10:55:52.442Z,15.99
2023-05-11T10:58:54.293Z,15.91
2023-05-11T11:11:47.133Z,16.25
2023-05-11T12:07:15.922Z,17.38
2023-05-11T12:20:42.541Z,18.12
2023-05-11T12:32:56.647Z,16.17
2023-05-11T12:35:43.987Z,16.38
2023-05-11T12:38:33.958Z,16.70
2023-05-11T12:41:18.067Z,16.67
2023-05-11T12:44:06.117Z,16.18
2023-05-11T12:46:39.724Z,15.82
2023-05-11T12:49:27.129Z,16.24
2023-05-11T12:52:14.000Z,15.97
2023-05-11T12:58:38.032Z,16.03
2023-05-11T13:02:56.431Z,15.73
2023-05-11T13:04:18.881Z,15.53
2023-05-11T13:07:00.158Z,15.49
2023-05-11T13:22:07.910Z,15.59
2023-05-11T13:24:39.928Z,15.25
2023-05-11T13:27:14.897Z,15.72
2023-05-11T13:30:20.285Z,15.83
2023-05-11T13:36:02.273Z,15.89
2023-05-11T13:38:34.530Z,16.19
2023-05-11T13:44:24.717Z,15.86
2023-05-11T13:47:08.925Z,16.06
2023-05-11T13:49:39.803Z,15.72
2023-05-11T13:52:13.944Z,15.46
2023-05-11T13:54:44.285Z,15.59
2023-05-11T13:57:14.725Z,16.03
2023-05-11T13:59:45.105Z,15.51
2023-05-11T14:02:19.723Z,15.51
2023-05-11T14:04:48.884Z,15.26
2023-05-11T14:07:17.937Z,15.22
2023-05-11T14:09:48.471Z,14.97
2023-05-11T14:12:20.441Z,15.00
2023-05-11T14:14:52.383Z,14.97
2023-05-11T14:17:21.317Z,14.73
2023-05-11T14:19:49.932Z,14.48
2023-05-11T14:22:20.332Z,14.74
2023-05-11T14:24:50.931Z,14.59
2023-05-11T14:27:22.824Z,14.64
2023-05-11T14:29:53.141Z,14.70
2023-05-11T14:35:40.134Z,15.21
2023-05-11T14:38:13.536Z,15.21
2023-05-11T14:40:43.049Z,15.35
2023-05-11T14:43:27.686Z,15.35
2023-05-11T14:46:00.710Z,14.70
2023-05-11T14:48:37.560Z,14.61
2023-05-11T14:51:13.371Z,14.35
2023-05-11T14:53:52.284Z,14.10
2023-05-11T14:56:58.225Z,13.73
2023-05-11T14:59:58.462Z,13.83
2023-05-11T15:02:29.628Z,13.93
2023-05-11T15:05:06.085Z,14.02
2023-05-11T15:07:41.214Z,14.08
2023-05-11T15:11:14.140Z,13.82
2023-05-11T15:13:22.228Z,13.77
2023-05-11T15:15:52.627Z,13.24
2023-05-11T15:18:23.217Z,13.56
2023-05-11T15:20:56.245Z,13.58
2023-05-11T15:23:22.646Z,13.40
2023-05-11T15:25:56.378Z,13.38
2023-05-11T15:28:39.195Z,13.56
2023-05-11T15:31:27.265Z,13.50
2023-05-11T15:34:00.233Z,13.48
2023-05-11T15:36:30.729Z,13.15
2023-05-11T15:39:06.189Z,13.47
2023-05-11T15:41:39.276Z,13.28
2023-05-11T15:44:08.484Z,13.50
2023-05-11T15:46:38.202Z,13.02
2023-05-11T15:49:10.788Z,13.21
2023-05-11T15:52:04.002Z,13.32
2023-05-11T15:54:41.912Z,13.34
2023-05-11T15:57:23.448Z,13.12
2023-05-11T15:59:57.270Z,13.05
2023-05-11T16:02:36.517Z,12.45
2023-05-11T16:05:38.823Z,12.85
2023-05-11T16:08:18.139Z,12.69
2023-05-11T16:11:44.106Z,12.65
2023-05-11T16:13:52.894Z,12.51
2023-05-11T16:16:26.179Z,12.63
2023-05-11T16:19:07.466Z,12.48
2023-05-11T16:21:45.708Z,12.42
2023-05-11T16:24:38.160Z,12.56
2023-05-11T16:30:25.296Z,12.51
2023-05-11T16:35:46.753Z,11.86
2023-05-11T16:38:25.466Z,12.44
2023-05-11T16:41:03.834Z,12.28
2023-05-11T16:43:53.425Z,12.32
2023-05-11T16:46:28.436Z,12.42
2023-05-11T16:49:18.370Z,12.39
2023-05-11T16:51:50.307Z,12.40
2023-05-11T16:54:28.063Z,12.31
2023-05-11T16:57:01.443Z,12.16
2023-05-11T16:59:31.836Z,12.18
2023-05-11T17:02:02.188Z,12.18
2023-05-11T17:04:38.674Z,12.18
2023-05-11T17:10:47.497Z,12.13
2023-05-11T17:12:52.067Z,12.02
2023-05-11T17:15:43.482Z,12.01
2023-05-11T17:18:17.151Z,12.04
2023-05-11T17:20:48.592Z,12.07
2023-05-11T17:23:20.664Z,12.08
2023-05-11T17:25:56.825Z,12.12
2023-05-11T17:28:25.831Z,12.07
2023-05-11T17:30:54.567Z,12.10
2023-05-11T17:33:24.514Z,12.07
2023-05-11T17:35:54.997Z,12.04
2023-05-11T17:38:38.936Z,12.01
2023-05-11T17:41:10.809Z,11.99
2023-05-11T17:43:39.926Z,11.97
2023-05-11T17:46:09.917Z,11.98
2023-05-11T17:48:41.793Z,11.91
2023-05-11T17:51:10.494Z,11.97
2023-05-11T17:53:40.625Z,11.93
2023-05-11T17:56:16.674Z,11.92
2023-05-11T17:58:43.598Z,11.94
2023-05-11T18:01:14.358Z,11.99
2023-05-11T18:03:52.336Z,12.11
2023-05-11T18:06:21.312Z,12.00
2023-05-11T18:08:50.014Z,11.95
2023-05-11T18:11:18.787Z,11.85
2023-05-11T18:13:48.633Z,11.88
2023-05-11T18:16:27.977Z,11.88
2023-05-11T18:19:13.065Z,11.88
2023-05-11T18:21:34.812Z,11.93
2023-05-11T18:24:04.714Z,11.88
2023-05-11T18:26:33.553Z,11.88
2023-05-11T18:29:03.879Z,11.84
2023-05-11T18:31:32.638Z,11.85
2023-05-11T18:34:05.234Z,11.90
2023-05-11T18:36:34.552Z,11.95
2023-05-11T18:39:04.815Z,11.45
2023-05-11T18:41:33.437Z,11.89
2023-05-11T18:44:02.935Z,11.99
2023-05-11T18:46:39.045Z,12.03
2023-05-11T18:49:07.749Z,11.97
2023-05-11T18:51:36.522Z,12.02
2023-05-11T18:55:53.152Z,12.02
2023-05-11T18:58:07.838Z,12.00
2023-05-11T19:06:53.039Z,11.93
2023-05-11T19:18:45.508Z,11.85
2023-05-11T19:24:33.144Z,11.86
2023-05-11T19:27:15.494Z,11.83
2023-05-11T19:32:56.685Z,11.79
2023-05-11T19:35:29.170Z,11.58
2023-05-11T19:38:00.944Z,11.71
2023-05-11T19:40:46.388Z,11.66
2023-05-11T19:43:34.476Z,11.73
2023-05-11T19:46:11.781Z,11.75
2023-05-11T19:48:45.722Z,11.77
2023-05-11T19:51:14.942Z,11.81
2023-05-11T19:53:59.642Z,11.82
2023-05-11T19:56:35.892Z,11.75
2023-05-11T19:59:31.389Z,11.64
2023-05-11T20:02:06.699Z,11.65
2023-05-11T20:05:07.762Z,11.62
2023-05-11T20:07:49.488Z,11.63
2023-05-11T20:13:29.569Z,11.54
2023-05-11T20:16:00.885Z,11.61
2023-05-11T20:18:42.625Z,11.63
2023-05-11T20:21:14.558Z,11.59
2023-05-11T20:23:48.138Z,11.48
2023-05-11T20:26:22.361Z,11.42
2023-05-11T20:29:07.078Z,11.41
2023-05-11T20:31:36.560Z,11.34
2023-05-11T20:34:09.719Z,11.36
2023-05-11T20:36:41.614Z,11.40
2023-05-11T20:39:15.562Z,11.30
2023-05-11T20:41:41.981Z,11.36
2023-05-11T20:44:15.193Z,11.34
2023-05-11T20:46:55.349Z,11.30
2023-05-11T20:49:38.947Z,11.27
2023-05-11T20:58:08.256Z,11.18
2023-05-11T21:03:28.143Z,11.08
2023-05-11T21:06:04.146Z,11.00
2023-05-11T21:08:33.366Z,11.03
2023-05-11T21:11:10.466Z,11.02
2023-05-11T21:13:54.076Z,10.97
2023-05-11T21:16:24.591Z,10.94
2023-05-11T21:18:55.368Z,10.88
2023-05-11T21:21:24.278Z,10.87
2023-05-11T21:23:54.529Z,10.82
2023-05-11T21:26:29.303Z,10.83
2023-05-11T21:29:01.629Z,10.77
2023-05-11T21:31:32.131Z,10.73
2023-05-11T21:34:03.689Z,10.73
2023-05-11T21:36:32.705Z,10.64
2023-05-11T21:39:01.542Z,10.65
2023-05-11T21:41:30.309Z,10.60
2023-05-11T21:43:59.221Z,10.58
2023-05-11T21:46:40.756Z,10.58
2023-05-11T21:49:03.255Z,10.54
2023-05-11T21:51:33.942Z,10.55
2023-05-11T21:54:05.898Z,10.57
2023-05-11T21:56:40.285Z,10.52
2023-05-11T21:59:09.182Z,10.50
2023-05-11T22:01:39.965Z,10.49
2023-05-11T22:04:09.326Z,10.42
2023-05-11T22:06:41.279Z,10.45
2023-05-11T22:09:10.190Z,10.43
2023-05-11T22:11:41.825Z,10.36
2023-05-11T22:14:13.372Z,10.25
2023-05-11T22:16:42.138Z,10.29
2023-05-11T22:19:11.183Z,10.19
2023-05-11T22:21:40.043Z,10.14
2023-05-11T22:24:09.047Z,10.08
2023-05-11T22:26:40.602Z,10.06
2023-05-11T22:29:09.825Z,10.08
2023-05-11T22:31:38.603Z,10.08
2023-05-11T22:34:07.236Z,10.01
2023-05-11T22:36:35.937Z,10.07
2023-05-11T22:39:06.020Z,9.96
2023-05-11T22:41:34.759Z,9.97
2023-05-11T22:44:06.578Z,9.96
2023-05-11T22:46:35.340Z,9.94
2023-05-11T22:49:04.103Z,10.00
2023-05-11T22:51:32.902Z,9.94
2023-05-11T22:54:01.557Z,9.96
2023-05-11T22:56:30.757Z,9.92
2023-05-11T22:59:03.857Z,9.98
2023-05-11T23:01:33.646Z,9.97
2023-05-11T23:04:02.308Z,10.00
2023-05-11T23:06:31.285Z,10.00
2023-05-11T23:09:01.770Z,10.02
2023-05-11T23:11:30.637Z,10.01
2023-05-11T23:13:59.650Z,10.01
2023-05-11T23:16:30.991Z,9.89
2023-05-11T23:19:01.603Z,10.01
2023-05-11T23:21:30.699Z,9.97
2023-05-11T23:23:59.521Z,9.92
2023-05-11T23:26:28.245Z,9.89
2023-05-11T23:28:56.880Z,9.85
2023-05-11T23:31:27.310Z,9.73
2023-05-11T23:33:55.970Z,9.66
2023-05-11T23:36:24.848Z,9.65
2023-05-11T23:38:53.941Z,9.68
2023-05-11T23:41:22.735Z,9.67
2023-05-11T23:43:51.510Z,9.69
2023-05-11T23:46:20.410Z,9.69
2023-05-11T23:48:50.770Z,9.69
2023-05-11T23:51:19.374Z,9.63
2023-05-11T23:53:48.183Z,9.68
2023-05-11T23:56:16.944Z,9.57
2023-05-11T23:58:49.914Z,9.62
